createdAt,value
2018-12-22T00:01:19.036Z,9.10
2018-12-22T00:03:45.336Z,9.10
2018-12-22T00:06:11.607Z,9.10
2018-12-22T00:08:37.874Z,9.10
2018-12-22T00:11:04.152Z,9.10
2018-12-22T00:13:30.430Z,9.10
2018-12-22T00:15:56.748Z,9.00
2018-12-22T00:18:23.072Z,9.00
2018-12-22T00:20:49.431Z,9.00
2018-12-22T00:23:15.779Z,9.00
2018-12-22T00:25:42.045Z,9.00
2018-12-22T00:28:08.305Z,9.00
2018-12-22T00:30:34.571Z,8.90
2018-12-22T00:33:00.986Z,8.90
2018-12-22T00:35:28.143Z,8.90
2018-12-22T00:37:54.445Z,8.90
2018-12-22T00:40:20.700Z,8.90
2018-12-22T00:42:47.317Z,8.90
2018-12-22T00:45:13.637Z,8.90
2018-12-22T00:47:39.936Z,9.00
2018-12-22T00:50:06.251Z,9.00
2018-12-22T00:52:32.587Z,9.00
2018-12-22T00:54:58.867Z,9.00
2018-12-22T00:57:25.209Z,9.00
2018-12-22T00:59:51.467Z,9.00
2018-12-22T01:02:17.757Z,9.00
2018-12-22T01:04:44.074Z,9.00
2018-12-22T01:07:10.436Z,9.00
2018-12-22T01:09:36.669Z,9.00
2018-12-22T01:12:03.217Z,9.00
2018-12-22T01:14:29.673Z,9.00
2018-12-22T01:16:55.978Z,9.00
2018-12-22T01:19:22.364Z,9.00
2018-12-22T01:21:48.657Z,8.90
2018-12-22T01:24:14.964Z,9.00
2018-12-22T01:26:41.247Z,9.00
2018-12-22T01:29:07.622Z,9.00
2018-12-22T01:31:33.956Z,9.00
2018-12-22T01:34:00.222Z,9.00
2018-12-22T01:36:26.538Z,9.00
2018-12-22T01:38:52.806Z,8.90
2018-12-22T01:41:19.131Z,9.00
2018-12-22T01:43:45.413Z,9.00
2018-12-22T01:46:11.750Z,9.00
2018-12-22T01:48:38.117Z,9.00
2018-12-22T01:51:04.384Z,9.00
2018-12-22T01:53:30.661Z,9.00
2018-12-22T01:55:57.046Z,9.00
2018-12-22T01:58:23.995Z,9.00
2018-12-22T02:00:50.256Z,9.00
2018-12-22T02:03:16.576Z,9.00
2018-12-22T02:05:42.814Z,9.00
2018-12-22T02:08:09.104Z,9.00
2018-12-22T02:10:35.349Z,9.00
2018-12-22T02:13:01.645Z,9.00
2018-12-22T02:15:27.936Z,9.00
2018-12-22T02:17:54.197Z,9.00
2018-12-22T02:20:20.484Z,9.10
2018-12-22T02:22:46.729Z,9.10
2018-12-22T02:25:13.131Z,9.20
2018-12-22T02:27:39.393Z,9.20
2018-12-22T02:30:05.677Z,9.10
2018-12-22T02:32:32.061Z,9.10
2018-12-22T02:34:58.346Z,9.10
2018-12-22T02:37:24.618Z,9.10
2018-12-22T02:39:50.861Z,9.10
2018-12-22T02:42:17.152Z,9.10
2018-12-22T02:44:43.499Z,9.10
2018-12-22T02:47:09.806Z,9.10
2018-12-22T02:49:36.050Z,9.00
2018-12-22T02:52:02.411Z,9.00
2018-12-22T02:54:28.696Z,9.00
2018-12-22T02:56:55.018Z,9.00
2018-12-22T02:59:21.302Z,9.10
2018-12-22T03:01:47.552Z,9.00
2018-12-22T03:04:13.798Z,9.10
2018-12-22T03:06:40.171Z,9.00
2018-12-22T03:09:06.487Z,9.00
2018-12-22T03:11:32.796Z,9.00
2018-12-22T03:13:59.073Z,9.00
2018-12-22T03:16:25.385Z,9.00
2018-12-22T03:18:51.776Z,9.00
2018-12-22T03:21:18.102Z,9.00
2018-12-22T03:23:44.444Z,9.00
2018-12-22T03:26:10.713Z,9.00
2018-12-22T03:28:36.967Z,9.00
2018-12-22T03:31:03.371Z,9.00
2018-12-22T03:33:29.653Z,8.90
2018-12-22T03:35:55.989Z,8.90
2018-12-22T03:38:22.263Z,8.90
2018-12-22T03:40:48.569Z,8.90
2018-12-22T03:43:14.906Z,9.00
2018-12-22T03:45:41.182Z,9.00
2018-12-22T03:48:07.494Z,9.00
2018-12-22T03:50:33.749Z,9.10
2018-12-22T03:53:00.089Z,9.10
2018-12-22T03:55:26.323Z,9.00
2018-12-22T03:57:52.592Z,9.00
2018-12-22T04:00:18.898Z,9.10
2018-12-22T04:02:45.217Z,9.10
2018-12-22T04:05:11.529Z,9.10
2018-12-22T04:07:37.855Z,9.10
2018-12-22T04:10:05.444Z,9.10
2018-12-22T04:12:31.777Z,9.10
2018-12-22T04:14:58.141Z,9.10
2018-12-22T04:17:24.450Z,9.10
2018-12-22T04:19:50.763Z,9.10
2018-12-22T04:22:17.194Z,9.20
2018-12-22T04:24:43.445Z,9.10
2018-12-22T04:27:09.706Z,9.10
2018-12-22T04:29:35.968Z,9.10
2018-12-22T04:32:02.258Z,9.10
2018-12-22T04:34:28.518Z,9.10
2018-12-22T04:36:55.076Z,9.10
2018-12-22T04:39:21.315Z,9.10
2018-12-22T04:41:47.647Z,9.10
2018-12-22T04:44:13.924Z,9.10
2018-12-22T04:46:40.212Z,9.10
2018-12-22T04:49:06.464Z,9.10
2018-12-22T04:51:32.847Z,9.10
2018-12-22T04:53:59.113Z,9.00
2018-12-22T04:56:25.404Z,9.00
2018-12-22T04:58:51.714Z,9.00
2018-12-22T05:01:18.110Z,9.00
2018-12-22T05:03:44.454Z,9.10
2018-12-22T05:06:10.751Z,9.10
2018-12-22T05:08:37.218Z,9.10
2018-12-22T05:11:03.547Z,9.10
2018-12-22T05:13:29.812Z,9.10
2018-12-22T05:15:56.043Z,9.10
2018-12-22T05:18:22.331Z,9.10
2018-12-22T05:20:48.647Z,9.10
2018-12-22T05:23:14.907Z,9.10
2018-12-22T05:25:41.170Z,9.10
2018-12-22T05:28:07.767Z,9.10
2018-12-22T05:30:34.066Z,9.10
2018-12-22T05:33:00.422Z,9.20
2018-12-22T05:35:26.672Z,9.20
2018-12-22T05:37:52.938Z,9.20
2018-12-22T05:40:19.204Z,9.20
2018-12-22T05:42:46.557Z,9.20
2018-12-22T05:45:12.861Z,9.20
2018-12-22T05:47:39.104Z,9.30
2018-12-22T05:50:06.409Z,9.30
2018-12-22T05:52:32.835Z,9.40
2018-12-22T05:54:59.086Z,9.40
2018-12-22T05:57:25.374Z,9.40
2018-12-22T06:00:00.186Z,9.40
2018-12-22T06:02:19.965Z,9.40
2018-12-22T06:04:46.230Z,9.40
2018-12-22T06:07:12.569Z,9.30
2018-12-22T06:09:38.896Z,9.40
2018-12-22T06:12:05.180Z,9.40
2018-12-22T06:14:31.615Z,9.50
2018-12-22T06:16:57.952Z,9.50
2018-12-22T06:19:24.211Z,9.50
2018-12-22T06:21:50.483Z,9.50
2018-12-22T06:24:16.813Z,9.50
2018-12-22T06:26:43.168Z,9.50
2018-12-22T06:29:09.482Z,9.50
2018-12-22T06:31:35.828Z,9.50
2018-12-22T06:34:02.145Z,9.50
2018-12-22T06:36:28.487Z,9.60
2018-12-22T06:38:54.756Z,9.60
2018-12-22T06:41:20.983Z,9.60
2018-12-22T06:43:47.242Z,9.60
2018-12-22T06:46:13.475Z,9.60
2018-12-22T06:48:39.739Z,9.50
2018-12-22T06:51:06.063Z,9.50
2018-12-22T06:53:32.353Z,9.40
2018-12-22T06:55:58.754Z,9.40
2018-12-22T06:58:25.039Z,9.30
2018-12-22T07:00:51.353Z,9.30
2018-12-22T07:03:17.600Z,9.30
2018-12-22T07:05:43.886Z,9.30
2018-12-22T07:08:10.177Z,9.30
2018-12-22T07:10:36.556Z,9.30
2018-12-22T07:13:03.080Z,9.20
2018-12-22T07:15:29.451Z,9.20
2018-12-22T07:17:55.866Z,9.20
2018-12-22T07:20:22.152Z,9.10
2018-12-22T07:22:48.468Z,9.10
2018-12-22T07:25:14.775Z,9.00
2018-12-22T07:27:41.088Z,9.00
2018-12-22T07:30:09.119Z,9.00
2018-12-22T07:32:35.359Z,9.00
2018-12-22T07:35:01.677Z,9.00
2018-12-22T07:37:27.978Z,9.00
2018-12-22T07:39:54.320Z,9.00
2018-12-22T07:42:20.766Z,9.00
2018-12-22T07:44:47.024Z,9.00
2018-12-22T07:47:13.295Z,9.00
2018-12-22T07:49:40.386Z,8.90
2018-12-22T07:52:06.723Z,9.00
2018-12-22T07:54:33.044Z,8.90
2018-12-22T07:57:00.016Z,8.90
2018-12-22T07:59:26.285Z,8.90
2018-12-22T08:01:52.723Z,8.90
2018-12-22T08:04:19.882Z,8.90
2018-12-22T08:06:46.186Z,8.90
2018-12-22T08:09:12.599Z,8.90
2018-12-22T08:11:39.324Z,8.90
2018-12-22T08:14:05.639Z,8.90
2018-12-22T08:16:32.035Z,8.90
2018-12-22T08:18:58.297Z,8.90
2018-12-22T08:21:24.632Z,8.90
2018-12-22T08:23:50.943Z,8.90
2018-12-22T08:26:17.225Z,8.90
2018-12-22T08:28:43.564Z,8.90
2018-12-22T08:31:10.501Z,8.90
2018-12-22T08:33:36.834Z,8.80
2018-12-22T08:36:03.125Z,8.80
2018-12-22T08:38:30.095Z,8.90
2018-12-22T08:40:56.476Z,8.90
2018-12-22T08:43:22.723Z,8.80
2018-12-22T08:45:49.143Z,8.90
2018-12-22T08:48:15.470Z,8.90
2018-12-22T08:50:41.742Z,8.80
2018-12-22T08:53:08.038Z,8.80
2018-12-22T08:55:34.392Z,8.80
2018-12-22T08:58:01.803Z,8.80
2018-12-22T09:00:28.085Z,8.70
2018-12-22T09:02:54.377Z,8.70
2018-12-22T09:05:21.126Z,8.60
2018-12-22T09:07:47.457Z,8.60
2018-12-22T09:10:13.723Z,8.60
2018-12-22T09:12:40.041Z,8.50
2018-12-22T09:15:07.367Z,8.50
2018-12-22T09:17:33.661Z,8.50
2018-12-22T09:20:00.278Z,8.50
2018-12-22T09:22:26.712Z,8.50
2018-12-22T09:24:53.019Z,8.50
2018-12-22T09:27:19.459Z,8.50
2018-12-22T09:29:45.724Z,8.40
2018-12-22T09:32:12.120Z,8.40
2018-12-22T09:34:38.433Z,8.40
2018-12-22T09:37:06.835Z,8.30
2018-12-22T09:39:33.114Z,8.40
2018-12-22T09:41:59.414Z,8.40
2018-12-22T09:44:25.714Z,8.40
2018-12-22T09:46:52.139Z,8.30
2018-12-22T09:49:18.424Z,8.30
2018-12-22T09:51:44.795Z,8.30
2018-12-22T09:54:11.491Z,8.30
2018-12-22T09:56:37.739Z,8.30
2018-12-22T09:59:06.359Z,8.30
2018-12-22T10:01:32.518Z,8.20
2018-12-22T10:03:58.779Z,8.20
2018-12-22T10:06:25.058Z,8.10
2018-12-22T10:08:51.735Z,8.00
2018-12-22T10:11:18.444Z,8.00
2018-12-22T10:13:44.751Z,8.00
2018-12-22T10:16:11.061Z,8.00
2018-12-22T10:18:37.416Z,8.10
2018-12-22T10:21:03.674Z,8.20
2018-12-22T10:23:30.131Z,8.30
2018-12-22T10:25:56.520Z,8.40
2018-12-22T10:28:22.911Z,8.50
2018-12-22T10:30:49.236Z,8.70
2018-12-22T10:33:15.512Z,8.80
2018-12-22T10:35:42.512Z,8.90
2018-12-22T10:38:08.902Z,8.90
2018-12-22T10:40:35.204Z,8.90
2018-12-22T10:43:01.649Z,8.90
2018-12-22T10:45:27.922Z,8.90
2018-12-22T10:47:54.198Z,8.90
2018-12-22T10:50:20.617Z,9.00
2018-12-22T10:52:48.807Z,9.00
2018-12-22T10:55:15.245Z,9.00
2018-12-22T10:57:41.570Z,9.00
2018-12-22T11:00:10.354Z,9.00
2018-12-22T11:02:36.656Z,9.00
2018-12-22T11:05:04.909Z,9.00
2018-12-22T11:07:31.211Z,9.00
2018-12-22T11:09:57.587Z,9.00
2018-12-22T11:12:23.970Z,9.00
2018-12-22T11:14:50.353Z,9.00
2018-12-22T11:17:16.645Z,8.90
2018-12-22T11:19:43.333Z,8.90
2018-12-22T11:22:09.648Z,8.90
2018-12-22T11:24:35.932Z,8.90
2018-12-22T11:27:02.681Z,8.90
2018-12-22T11:29:29.029Z,8.90
2018-12-22T11:31:55.334Z,8.80
2018-12-22T11:34:21.668Z,8.80
2018-12-22T11:36:47.917Z,8.80
2018-12-22T11:39:14.222Z,8.90
2018-12-22T11:41:40.710Z,8.90
2018-12-22T11:44:07.330Z,8.90
2018-12-22T11:46:34.018Z,8.80
2018-12-22T11:49:00.531Z,8.80
2018-12-22T11:51:26.840Z,8.80
2018-12-22T11:53:53.551Z,8.70
2018-12-22T11:56:19.886Z,8.70
2018-12-22T11:58:46.123Z,8.70
2018-12-22T12:01:12.460Z,8.70
2018-12-22T12:03:38.748Z,8.70
2018-12-22T12:06:05.124Z,8.70
2018-12-22T12:08:31.789Z,8.70
2018-12-22T12:10:58.058Z,8.60
2018-12-22T12:13:24.356Z,8.60
2018-12-22T12:15:50.813Z,8.60
2018-12-22T12:18:24.936Z,8.50
2018-12-22T12:20:51.246Z,8.50
2018-12-22T12:23:17.602Z,8.50
2018-12-22T12:25:44.196Z,8.50
2018-12-22T12:28:10.502Z,8.50
2018-12-22T12:30:36.991Z,8.60
2018-12-22T12:33:03.520Z,8.60
2018-12-22T12:35:29.843Z,8.70
2018-12-22T12:37:56.157Z,8.70
2018-12-22T12:40:22.701Z,8.70
2018-12-22T12:42:49.063Z,8.70
2018-12-22T12:45:15.364Z,8.70
2018-12-22T12:47:43.290Z,8.70
2018-12-22T12:50:13.262Z,8.70
2018-12-22T12:52:39.551Z,8.70
2018-12-22T12:55:10.746Z,8.70
2018-12-22T12:57:37.266Z,8.70
2018-12-22T13:00:08.333Z,8.70
2018-12-22T13:02:34.829Z,8.70
2018-12-22T13:05:01.175Z,8.70
2018-12-22T13:07:27.452Z,8.70
2018-12-22T13:09:53.983Z,8.70
2018-12-22T13:12:20.616Z,8.80
2018-12-22T13:14:47.063Z,8.80
2018-12-22T13:17:13.355Z,8.80
2018-12-22T13:19:39.675Z,8.90
2018-12-22T13:22:05.996Z,8.90
2018-12-22T13:24:32.337Z,8.90
2018-12-22T13:26:58.729Z,9.00
2018-12-22T13:29:25.234Z,9.00
2018-12-22T13:31:51.549Z,9.00
2018-12-22T13:34:17.850Z,9.00
2018-12-22T13:36:44.199Z,9.00
2018-12-22T13:39:10.828Z,9.00
2018-12-22T13:41:37.290Z,9.00
2018-12-22T13:44:03.568Z,9.00
2018-12-22T13:46:29.787Z,9.00
2018-12-22T13:48:56.092Z,8.90
2018-12-22T13:51:22.675Z,8.90
2018-12-22T13:53:49.050Z,8.90
2018-12-22T13:56:15.671Z,8.90
2018-12-22T13:58:41.961Z,8.90
2018-12-22T14:01:08.367Z,8.80
2018-12-22T14:03:34.962Z,8.80
2018-12-22T14:06:01.567Z,8.80
2018-12-22T14:08:28.913Z,8.80
2018-12-22T14:10:55.806Z,8.80
2018-12-22T14:13:22.335Z,8.70
2018-12-22T14:15:49.309Z,8.70
2018-12-22T14:18:27.834Z,8.70
2018-12-22T14:20:54.430Z,8.70
2018-12-22T14:23:24.017Z,8.60
2018-12-22T14:25:50.605Z,8.60
2018-12-22T14:28:16.998Z,8.60
2018-12-22T14:30:43.327Z,8.50
2018-12-22T14:33:09.769Z,8.50
2018-12-22T14:35:36.591Z,8.50
2018-12-22T14:38:02.913Z,8.50
2018-12-22T14:40:29.265Z,8.50
2018-12-22T14:42:57.216Z,8.50
2018-12-22T14:45:24.288Z,8.40
2018-12-22T14:47:55.826Z,8.40
2018-12-22T14:50:29.812Z,8.40
2018-12-22T14:52:56.539Z,8.40
2018-12-22T14:55:25.565Z,8.40
2018-12-22T14:57:56.386Z,8.30
2018-12-22T15:00:22.986Z,8.30
2018-12-22T15:02:50.642Z,8.30
2018-12-22T15:05:18.054Z,8.20
2018-12-22T15:07:46.289Z,8.20
2018-12-22T15:10:14.338Z,8.20
2018-12-22T15:12:43.239Z,8.10
2018-12-22T15:15:11.334Z,8.10
2018-12-22T15:17:42.486Z,8.10
2018-12-22T15:20:18.390Z,8.00
2018-12-22T15:22:46.770Z,8.00
2018-12-22T15:25:13.280Z,8.00
2018-12-22T15:27:41.155Z,7.90
2018-12-22T15:30:10.801Z,7.90
2018-12-22T15:32:44.200Z,7.90
2018-12-22T15:35:08.087Z,7.90
2018-12-22T15:37:34.733Z,7.90
2018-12-22T15:40:01.212Z,7.90
2018-12-22T15:42:27.579Z,7.90
2018-12-22T15:44:53.866Z,7.90
2018-12-22T15:47:20.205Z,7.90
2018-12-22T15:49:46.773Z,7.80
2018-12-22T15:52:13.108Z,7.80
2018-12-22T15:54:39.647Z,7.80
2018-12-22T15:57:06.264Z,7.80
2018-12-22T15:59:32.585Z,7.80
2018-12-22T16:01:58.967Z,7.70
2018-12-22T16:04:25.233Z,7.70
2018-12-22T16:06:51.735Z,7.70
2018-12-22T16:09:18.132Z,7.70
2018-12-22T16:11:44.691Z,7.70
2018-12-22T16:14:10.981Z,7.70
2018-12-22T16:16:37.594Z,7.70
2018-12-22T16:19:04.945Z,7.70
2018-12-22T16:21:31.408Z,7.70
2018-12-22T16:23:57.827Z,7.80
2018-12-22T16:26:24.237Z,7.80
2018-12-22T16:28:50.728Z,7.80
2018-12-22T16:31:18.053Z,7.80
2018-12-22T16:33:44.513Z,7.90
2018-12-22T16:36:10.823Z,7.90
2018-12-22T16:38:37.430Z,7.90
2018-12-22T16:41:03.920Z,8.00
2018-12-22T16:43:30.300Z,8.00
2018-12-22T16:45:59.376Z,8.00
2018-12-22T16:48:25.802Z,8.00
2018-12-22T16:50:52.267Z,8.00
2018-12-22T16:53:18.627Z,8.00
2018-12-22T16:55:45.032Z,8.00
2018-12-22T16:58:15.440Z,8.00
2018-12-22T17:00:49.814Z,8.00
2018-12-22T17:03:16.271Z,8.00
2018-12-22T17:05:42.685Z,8.00
2018-12-22T17:08:09.004Z,8.00
2018-12-22T17:10:35.335Z,7.90
2018-12-22T17:13:01.598Z,7.90
2018-12-22T17:15:28.018Z,7.90
2018-12-22T17:17:54.419Z,7.90
2018-12-22T17:20:20.747Z,7.90
2018-12-22T17:23:15.845Z,7.90
2018-12-22T17:25:44.277Z,7.80
2018-12-22T17:28:10.709Z,7.90
2018-12-22T17:30:37.331Z,7.90
2018-12-22T17:33:04.620Z,7.90
2018-12-22T17:35:31.268Z,7.90
2018-12-22T17:37:57.961Z,8.00
2018-12-22T17:40:24.405Z,8.00
2018-12-22T17:42:50.660Z,8.00
2018-12-22T17:45:16.957Z,7.90
2018-12-22T17:47:43.256Z,7.90
2018-12-22T17:50:09.629Z,7.80
2018-12-22T17:52:36.086Z,7.80
2018-12-22T17:55:02.599Z,7.80
2018-12-22T17:57:28.935Z,7.70
2018-12-22T17:59:55.478Z,7.70
2018-12-22T18:02:21.788Z,7.60
2018-12-22T18:04:48.445Z,7.50
2018-12-22T18:07:14.769Z,7.50
2018-12-22T18:09:41.097Z,7.50
2018-12-22T18:12:07.426Z,7.40
2018-12-22T18:14:33.745Z,7.50
2018-12-22T18:17:00.170Z,7.40
2018-12-22T18:19:26.493Z,7.40
2018-12-22T18:21:52.907Z,7.30
2018-12-22T18:24:19.263Z,7.40
2018-12-22T18:26:46.852Z,7.40
2018-12-22T18:29:13.097Z,7.40
2018-12-22T18:31:39.388Z,7.40
2018-12-22T18:34:05.822Z,7.40
2018-12-22T18:36:32.181Z,7.40
2018-12-22T18:38:58.731Z,7.40
2018-12-22T18:41:25.036Z,7.40
2018-12-22T18:43:51.410Z,7.40
2018-12-22T18:46:17.695Z,7.40
2018-12-22T18:48:44.169Z,7.40
2018-12-22T18:51:10.453Z,7.40
2018-12-22T18:53:36.806Z,7.40
2018-12-22T18:56:03.248Z,7.40
2018-12-22T18:58:29.733Z,7.30
2018-12-22T19:00:56.100Z,7.30
2018-12-22T19:03:22.448Z,7.20
2018-12-22T19:05:48.970Z,7.20
2018-12-22T19:08:15.401Z,7.20
2018-12-22T19:10:41.663Z,7.20
2018-12-22T19:13:08.058Z,7.20
2018-12-22T19:15:34.327Z,7.20
2018-12-22T19:18:00.640Z,7.20
2018-12-22T19:20:30.976Z,7.20
2018-12-22T19:22:58.169Z,7.20
2018-12-22T19:25:25.717Z,7.20
2018-12-22T19:27:51.996Z,7.20
2018-12-22T19:30:18.247Z,7.20
2018-12-22T19:32:44.822Z,7.20
2018-12-22T19:35:11.110Z,7.10
2018-12-22T19:37:37.428Z,7.10
2018-12-22T19:40:03.943Z,7.10
2018-12-22T19:42:30.294Z,7.10
2018-12-22T19:44:56.613Z,7.10
2018-12-22T19:47:22.889Z,7.10
2018-12-22T19:49:49.416Z,7.10
2018-12-22T19:52:15.717Z,7.10
2018-12-22T19:54:42.071Z,7.10
2018-12-22T19:57:08.397Z,7.10
2018-12-22T19:59:34.695Z,7.10
2018-12-22T20:02:01.127Z,7.10
2018-12-22T20:04:27.491Z,7.10
2018-12-22T20:06:53.745Z,7.20
2018-12-22T20:09:20.365Z,7.20
2018-12-22T20:11:46.809Z,7.20
2018-12-22T20:14:13.077Z,7.20
2018-12-22T20:16:39.423Z,7.20
2018-12-22T20:19:06.238Z,7.20
2018-12-22T20:21:32.618Z,7.20
2018-12-22T20:23:58.936Z,7.10
2018-12-22T20:26:25.216Z,7.10
2018-12-22T20:28:51.521Z,7.10
2018-12-22T20:31:17.858Z,7.10
2018-12-22T20:33:44.194Z,7.10
2018-12-22T20:36:11.546Z,7.00
2018-12-22T20:38:37.885Z,7.00
2018-12-22T20:41:04.303Z,6.90
2018-12-22T20:43:30.918Z,6.90
2018-12-22T20:45:57.305Z,6.90
2018-12-22T20:48:23.538Z,6.90
2018-12-22T20:50:49.899Z,6.80
2018-12-22T20:53:16.170Z,6.80
2018-12-22T20:55:42.414Z,6.80
2018-12-22T20:58:08.714Z,6.80
2018-12-22T21:00:34.984Z,6.70
2018-12-22T21:03:01.470Z,6.60
2018-12-22T21:05:29.312Z,6.60
2018-12-22T21:07:55.613Z,6.60
2018-12-22T21:10:21.916Z,6.70
2018-12-22T21:12:48.247Z,6.70
2018-12-22T21:15:14.543Z,6.80
2018-12-22T21:17:41.178Z,6.80
2018-12-22T21:20:07.771Z,6.80
2018-12-22T21:22:34.039Z,6.90
2018-12-22T21:25:00.652Z,6.90
2018-12-22T21:27:27.229Z,6.90
2018-12-22T21:29:53.503Z,7.00
2018-12-22T21:32:19.859Z,7.00
2018-12-22T21:34:46.222Z,7.00
2018-12-22T21:37:12.539Z,7.00
2018-12-22T21:39:38.888Z,7.00
2018-12-22T21:42:05.255Z,7.00
2018-12-22T21:44:31.884Z,7.00
2018-12-22T21:46:58.216Z,7.00
2018-12-22T21:49:24.594Z,7.00
2018-12-22T21:51:51.720Z,7.00
2018-12-22T21:54:18.060Z,7.00
2018-12-22T21:56:44.441Z,7.00
2018-12-22T21:59:11.146Z,7.00
2018-12-22T22:01:37.659Z,7.00
2018-12-22T22:04:04.135Z,7.00
2018-12-22T22:06:30.452Z,7.00
2018-12-22T22:08:56.788Z,7.00
2018-12-22T22:11:23.169Z,7.00
2018-12-22T22:13:49.527Z,7.00
2018-12-22T22:16:15.969Z,7.00
2018-12-22T22:18:42.231Z,7.00
2018-12-22T22:21:08.586Z,7.00
2018-12-22T22:23:34.967Z,7.00
2018-12-22T22:26:01.642Z,7.00
2018-12-22T22:28:28.254Z,7.00
2018-12-22T22:30:54.545Z,6.90
2018-12-22T22:33:21.562Z,6.90
2018-12-22T22:35:48.107Z,7.00
2018-12-22T22:38:14.429Z,6.90
2018-12-22T22:40:40.712Z,7.00
2018-12-22T22:43:07.114Z,6.90
2018-12-22T22:45:33.596Z,6.90
2018-12-22T22:47:59.968Z,7.00
2018-12-22T22:50:26.272Z,6.90
2018-12-22T22:52:52.589Z,6.90
2018-12-22T22:55:18.926Z,6.90
2018-12-22T22:57:45.337Z,6.90
2018-12-22T23:00:14.108Z,6.90
2018-12-22T23:02:40.665Z,6.90
2018-12-22T23:05:06.984Z,6.90
2018-12-22T23:07:33.320Z,6.90
2018-12-22T23:09:59.675Z,6.90
2018-12-22T23:12:26.073Z,6.90
2018-12-22T23:14:52.436Z,6.90
2018-12-22T23:17:18.782Z,6.90
2018-12-22T23:19:45.100Z,6.80
2018-12-22T23:22:11.732Z,6.80
2018-12-22T23:24:40.436Z,6.80
2018-12-22T23:27:06.865Z,6.80
2018-12-22T23:29:33.179Z,6.80
2018-12-22T23:32:00.161Z,6.80
2018-12-22T23:34:26.616Z,6.80
2018-12-22T23:36:52.949Z,6.70
2018-12-22T23:39:19.676Z,6.70
2018-12-22T23:41:45.981Z,6.70
2018-12-22T23:44:12.351Z,6.70
2018-12-22T23:46:38.897Z,6.70
2018-12-22T23:49:05.117Z,6.60
2018-12-22T23:51:31.526Z,6.60
2018-12-22T23:53:58.459Z,6.50
2018-12-22T23:56:24.914Z,6.50
2018-12-22T23:58:51.172Z,6.50
